Home PIREPS Pireps

Flight SAB5831

  • Submitted By: Carl Hermans
  • Departure Airport: Bruxelles National (EBBR)
  • Arrival Airport: Heathrow (EGLL)
  • Aircraft: B737-500 (OO-SAB)
  • Flight Time: 01.13
  • Date Submitted: 14/11/2015
  • Status: Accepted
Flight Details
Gross Revenue:
(120 load / € 0.00 per unit
€ 0.00
Fuel Cost:
(3715 fuel used @ 5.1 / unit)
€ 18,946.50

Additional Log Information:

View Log

Aircraft Used in flight is B737-800 Jetair
18:13Flaps 3 Selected at 190ft and 0kts
18:13 Engine 1 Started
18:13 Engine 2 Started
18:13 Navigation Lights ON at 190 AGL
18:13 Taxi Lights ON at 190 AGL
18:13 Beacon Lights ON at 190 AGL
18:19 Brakes are On
18:21 Brakes are Released
18:22 Brakes are On
18:22 Strobe Lights ON at 190 AGL
18:22 Brakes are Released
18:23 Brakes are On
18:23 Brakes are Released
18:24 Brakes are On
18:25 Brakes are Released
18:25 Brakes are On
18:25 Taxi Lights OFF at 190 AGL
18:26 Brakes are Released
18:27 You Took off @ 167 Knots and Flaps at Position 3
Departure Weather
EBBR 141650Z 21013KT 9999 -RA FEW042 09/07 Q1022 NOSIGrn
18:27 Landing Gear Up @ 175 Knots and 210 Feet
18:27Flaps Retracted at 1150ft and 212kts
18:27 Below 10000 feet you are not allowed to go over 250 knots
18:33 Overspeed
18:33 Recovered from Overspeed
19:05Flaps 1 Selected at 5300ft and 188kts
19:15Flaps 2 Selected at 2930ft and 196kts
19:19Flaps 3 Selected at 1930ft and 193kts
19:19Flaps 4 Selected at 1960ft and 191kts
19:20Flaps 5 Selected at 1890ft and 159kts
19:20 Landing Gear Down @ 155 Knots and 1890 Feet
19:21Flaps 6 Selected at 1920ft and 153kts
19:22Flaps 7 Selected at 1460ft and 150kts
19:23Flaps 8 Selected at 970ft and 143kts
19:24 You Landed @ 135 Knots and with -100 Vertical Speed
Arrival Weather
EGLL 141750Z AUTO 24016KT 9999 OVC012 14/12 Q1016 NOSIGrn
19:25 Taxi Lights ON at 90 AGL
19:25Flaps Retracted at 90ft and 12kts
19:26 Brakes are On
19:26 Paused
19:26 Brussels Bel-Track1.0.0.11

Route Map

Corporate About Us Our Team Vacancies Information Fleet Route Network Rules and Regulations Operations Flight Schedules Event Center Tours Partners IVAO Vatsim Acars dev FSCB

fb Users Online Belgium Roger Wijns, United Kingdom David Chenery,
2 Pilot(s) and 159 Guest(s) Online
CMS by phpVMS - Design by Crazycreatives.com - Copyright © 2018 - Brussels Airlines Virtual